createdAt,value
2018-05-02T00:00:25.249Z,0.00
2018-05-02T00:01:25.400Z,0.00
2018-05-02T00:02:25.547Z,0.00
2018-05-02T00:03:25.694Z,0.00
2018-05-02T00:04:25.843Z,0.00
2018-05-02T00:05:25.989Z,0.00
2018-05-02T00:06:26.135Z,0.00
2018-05-02T00:07:26.289Z,0.00
2018-05-02T00:08:26.434Z,0.00
2018-05-02T00:09:26.583Z,0.00
2018-05-02T00:10:26.730Z,0.00
2018-05-02T00:11:26.879Z,0.00
2018-05-02T00:12:27.028Z,0.00
2018-05-02T00:13:27.178Z,0.00
2018-05-02T00:14:27.327Z,0.00
2018-05-02T00:15:27.472Z,0.00
2018-05-02T00:16:27.619Z,0.00
2018-05-02T00:17:27.767Z,0.00
2018-05-02T00:18:27.917Z,0.00
2018-05-02T00:19:28.067Z,0.00
2018-05-02T00:20:28.214Z,0.00
2018-05-02T00:21:28.371Z,0.00
2018-05-02T00:22:28.511Z,0.00
2018-05-02T00:23:28.658Z,0.00
2018-05-02T00:24:28.809Z,0.00
2018-05-02T00:25:28.953Z,0.00
2018-05-02T00:26:29.105Z,0.00
2018-05-02T00:27:29.252Z,0.00
2018-05-02T00:28:29.408Z,0.00
2018-05-02T00:29:29.550Z,0.00
2018-05-02T00:30:29.699Z,0.00
2018-05-02T00:31:29.844Z,0.00
2018-05-02T00:32:29.994Z,0.00
2018-05-02T00:33:30.140Z,0.00
2018-05-02T00:34:30.286Z,0.00
2018-05-02T00:35:30.488Z,0.00
2018-05-02T00:36:30.579Z,0.00
2018-05-02T00:37:30.727Z,0.00
2018-05-02T00:38:30.875Z,0.00
2018-05-02T00:39:31.019Z,0.00
2018-05-02T00:40:31.167Z,0.00
2018-05-02T00:41:31.326Z,0.00
2018-05-02T00:42:31.483Z,0.00
2018-05-02T00:43:31.609Z,0.00
2018-05-02T00:44:31.754Z,0.00
2018-05-02T00:45:31.908Z,0.00
2018-05-02T00:46:32.052Z,0.00
2018-05-02T00:47:32.197Z,0.00
2018-05-02T00:48:32.344Z,0.00
2018-05-02T00:49:32.491Z,0.00
2018-05-02T00:50:32.639Z,0.00
2018-05-02T00:51:32.783Z,0.00
2018-05-02T00:52:32.935Z,0.00
2018-05-02T00:53:33.081Z,0.00
2018-05-02T00:54:33.228Z,0.00
2018-05-02T00:55:33.372Z,0.00
2018-05-02T00:56:33.521Z,0.00
2018-05-02T00:57:33.666Z,0.00
2018-05-02T00:58:33.816Z,0.00
2018-05-02T00:59:33.955Z,0.00
2018-05-02T01:00:34.101Z,0.00
2018-05-02T01:01:34.250Z,0.00
2018-05-02T01:02:34.404Z,0.00
2018-05-02T01:03:34.544Z,0.00
2018-05-02T01:04:34.690Z,0.00
2018-05-02T01:05:34.841Z,0.00
2018-05-02T01:06:34.987Z,0.00
2018-05-02T01:07:35.134Z,0.00
2018-05-02T01:08:35.278Z,0.00
2018-05-02T01:09:35.432Z,0.00
2018-05-02T01:10:35.578Z,0.00
2018-05-02T01:11:35.724Z,0.00
2018-05-02T01:12:35.871Z,0.00
2018-05-02T01:13:36.017Z,0.00
2018-05-02T01:14:36.161Z,0.00
2018-05-02T01:15:36.310Z,0.00
2018-05-02T01:16:36.456Z,0.00
2018-05-02T01:17:36.604Z,0.00
2018-05-02T01:18:36.750Z,0.00
2018-05-02T01:19:36.897Z,0.00
2018-05-02T01:20:37.042Z,0.00
2018-05-02T01:21:37.191Z,0.00
2018-05-02T01:22:37.337Z,0.00
2018-05-02T01:23:37.483Z,0.00
2018-05-02T01:24:37.638Z,0.00
2018-05-02T01:25:37.779Z,0.00
2018-05-02T01:26:37.927Z,0.00
2018-05-02T01:27:38.075Z,0.00
2018-05-02T01:28:38.220Z,0.00
2018-05-02T01:29:38.365Z,0.00
2018-05-02T01:30:38.514Z,0.00
2018-05-02T01:31:38.660Z,0.00
2018-05-02T01:32:38.808Z,0.00
2018-05-02T01:33:38.954Z,0.00
2018-05-02T01:34:39.104Z,0.00
2018-05-02T01:35:39.251Z,0.00
2018-05-02T01:36:39.398Z,0.00
2018-05-02T01:37:39.546Z,0.00
2018-05-02T01:38:39.698Z,0.00
2018-05-02T01:39:39.841Z,0.00
2018-05-02T01:40:40.007Z,0.00
2018-05-02T01:41:40.149Z,0.00
2018-05-02T01:42:40.295Z,0.00
2018-05-02T01:43:40.445Z,0.00
2018-05-02T01:44:40.589Z,0.00
2018-05-02T01:45:40.741Z,0.00
2018-05-02T01:46:40.884Z,0.00
2018-05-02T01:47:41.033Z,0.00
2018-05-02T01:48:41.180Z,0.00
2018-05-02T01:49:41.323Z,0.00
2018-05-02T01:50:41.469Z,0.00
2018-05-02T01:51:41.618Z,0.00
2018-05-02T01:52:41.764Z,0.00
2018-05-02T01:53:41.914Z,0.00
2018-05-02T01:54:42.059Z,0.00
2018-05-02T01:55:42.207Z,0.00
2018-05-02T01:56:42.355Z,0.00
2018-05-02T01:57:42.503Z,0.00
2018-05-02T01:58:42.648Z,0.00
2018-05-02T01:59:42.800Z,0.00
2018-05-02T02:00:42.948Z,0.00
2018-05-02T02:01:43.087Z,0.00
2018-05-02T02:02:43.238Z,0.00
2018-05-02T02:03:43.389Z,0.00
2018-05-02T02:04:43.541Z,0.00
2018-05-02T02:05:43.684Z,0.00
2018-05-02T02:06:43.832Z,0.00
2018-05-02T02:07:43.981Z,0.00
2018-05-02T02:08:44.129Z,0.00
2018-05-02T02:09:44.277Z,0.00
2018-05-02T02:10:44.421Z,0.00
2018-05-02T02:11:44.568Z,0.00
2018-05-02T02:12:44.717Z,0.00
2018-05-02T02:13:44.862Z,0.00
2018-05-02T02:14:45.007Z,0.00
2018-05-02T02:15:45.155Z,0.00
2018-05-02T02:16:45.300Z,0.00
2018-05-02T02:17:45.446Z,0.00
2018-05-02T02:18:45.594Z,0.00
2018-05-02T02:19:45.741Z,0.00
2018-05-02T02:20:45.890Z,0.00
2018-05-02T02:21:46.038Z,0.00
2018-05-02T02:22:46.184Z,0.00
2018-05-02T02:23:46.334Z,0.00
2018-05-02T02:24:46.480Z,0.00
2018-05-02T02:25:46.625Z,0.00
2018-05-02T02:26:46.774Z,0.00
2018-05-02T02:27:46.928Z,0.00
2018-05-02T02:28:47.068Z,0.00
2018-05-02T02:29:47.217Z,0.00
2018-05-02T02:30:47.361Z,0.00
2018-05-02T02:31:47.509Z,0.00
2018-05-02T02:32:47.657Z,0.00
2018-05-02T02:33:47.800Z,0.00
2018-05-02T02:34:47.948Z,0.00
2018-05-02T02:35:48.093Z,0.00
2018-05-02T02:36:48.241Z,0.00
2018-05-02T02:37:48.387Z,0.00
2018-05-02T02:38:48.535Z,0.00
2018-05-02T02:39:48.683Z,0.00
2018-05-02T02:40:48.828Z,0.00
2018-05-02T02:41:48.972Z,0.00
2018-05-02T02:42:49.123Z,0.00
2018-05-02T02:43:49.265Z,0.00
2018-05-02T02:44:49.413Z,0.00
2018-05-02T02:45:49.559Z,0.00
2018-05-02T02:46:49.713Z,0.00
2018-05-02T02:47:49.858Z,0.00
2018-05-02T02:48:50.008Z,0.00
2018-05-02T02:49:50.154Z,0.00
2018-05-02T02:50:50.303Z,0.00
2018-05-02T02:51:50.447Z,0.00
2018-05-02T02:52:50.592Z,0.00
2018-05-02T02:53:50.741Z,0.00
2018-05-02T02:54:50.884Z,0.00
2018-05-02T02:55:51.031Z,0.00
2018-05-02T02:56:51.176Z,0.00
2018-05-02T02:57:51.332Z,0.00
2018-05-02T02:58:51.471Z,0.00
2018-05-02T02:59:51.620Z,0.00
2018-05-02T03:00:51.770Z,0.00
2018-05-02T03:01:51.909Z,0.00
2018-05-02T03:02:52.057Z,0.00
2018-05-02T03:03:52.202Z,0.00
2018-05-02T03:04:52.352Z,0.00
2018-05-02T03:05:52.499Z,0.00
2018-05-02T03:06:52.644Z,0.00
2018-05-02T03:07:52.794Z,0.00
2018-05-02T03:08:52.939Z,0.00
2018-05-02T03:09:53.088Z,0.00
2018-05-02T03:10:53.232Z,0.00
2018-05-02T03:11:53.376Z,0.00
2018-05-02T03:12:53.523Z,0.00
2018-05-02T03:13:53.669Z,0.00
2018-05-02T03:14:53.821Z,0.00
2018-05-02T03:15:53.965Z,0.00
2018-05-02T03:16:54.120Z,4.00
2018-05-02T03:17:54.259Z,0.00
2018-05-02T03:18:54.404Z,0.00
2018-05-02T03:19:54.550Z,0.00
2018-05-02T03:20:54.698Z,4.00
2018-05-02T03:21:54.842Z,4.00
2018-05-02T03:22:54.992Z,0.00
2018-05-02T03:23:55.143Z,4.00
2018-05-02T03:24:55.291Z,4.00
2018-05-02T03:25:55.429Z,4.00
2018-05-02T03:26:55.586Z,4.00
2018-05-02T03:27:55.733Z,8.00
2018-05-02T03:28:55.881Z,8.00
2018-05-02T03:29:56.031Z,12.00
2018-05-02T03:30:56.178Z,12.00
2018-05-02T03:31:56.325Z,12.00
2018-05-02T03:32:56.474Z,16.00
2018-05-02T03:33:56.616Z,20.00
2018-05-02T03:34:56.763Z,20.00
2018-05-02T03:35:56.911Z,24.00
2018-05-02T03:36:57.056Z,28.00
2018-05-02T03:37:57.207Z,28.00
2018-05-02T03:38:57.350Z,32.00
2018-05-02T03:39:57.498Z,36.00
2018-05-02T03:40:57.646Z,44.00
2018-05-02T03:41:57.790Z,48.00
2018-05-02T03:42:57.936Z,56.00
2018-05-02T03:43:58.082Z,64.00
2018-05-02T03:44:58.229Z,68.00
2018-05-02T03:45:58.377Z,76.00
2018-05-02T03:46:58.522Z,88.00
2018-05-02T03:47:58.668Z,96.00
2018-05-02T03:48:58.813Z,104.00
2018-05-02T03:49:58.959Z,112.00
2018-05-02T03:50:59.105Z,124.00
2018-05-02T03:51:59.257Z,136.00
2018-05-02T03:52:59.484Z,148.00
2018-05-02T03:53:59.552Z,160.00
2018-05-02T03:54:59.697Z,180.00
2018-05-02T03:55:59.844Z,196.00
2018-05-02T03:56:59.988Z,212.00
2018-05-02T03:58:00.136Z,232.00
2018-05-02T03:59:00.283Z,248.00
2018-05-02T04:00:00.428Z,276.00
2018-05-02T04:01:00.575Z,300.00
2018-05-02T04:02:00.722Z,328.00
2018-05-02T04:03:00.868Z,360.00
2018-05-02T04:04:01.016Z,396.00
2018-05-02T04:05:01.164Z,444.00
2018-05-02T04:06:01.313Z,496.00
2018-05-02T04:07:01.456Z,540.00
2018-05-02T04:08:01.599Z,576.00
2018-05-02T04:09:01.746Z,616.00
2018-05-02T04:10:01.896Z,668.00
2018-05-02T04:11:02.047Z,724.00
2018-05-02T04:12:02.192Z,780.00
2018-05-02T04:13:02.336Z,840.00
2018-05-02T04:14:02.484Z,916.00
2018-05-02T04:15:02.630Z,992.00
2018-05-02T04:16:02.777Z,1064.00
2018-05-02T04:17:02.925Z,1116.00
2018-05-02T04:18:03.072Z,1144.00
2018-05-02T04:19:03.240Z,1180.00
2018-05-02T04:20:03.372Z,1216.00
2018-05-02T04:21:03.517Z,1256.00
2018-05-02T04:22:03.659Z,1288.00
2018-05-02T04:23:03.807Z,1316.00
2018-05-02T04:24:03.957Z,1360.00
2018-05-02T04:25:04.105Z,1424.00
2018-05-02T04:26:04.265Z,1496.00
2018-05-02T04:27:04.399Z,1560.00
2018-05-02T04:28:04.545Z,1612.00
2018-05-02T04:29:04.693Z,1664.00
2018-05-02T04:30:04.835Z,1692.00
2018-05-02T04:31:04.983Z,1736.00
2018-05-02T04:32:05.131Z,1816.00
2018-05-02T04:33:05.278Z,1904.00
2018-05-02T04:34:05.529Z,1988.00
2018-05-02T04:35:05.579Z,2068.00
2018-05-02T04:36:05.727Z,2132.00
2018-05-02T04:37:05.871Z,2176.00
2018-05-02T04:38:06.022Z,2196.00
2018-05-02T04:39:06.165Z,2244.00
2018-05-02T04:40:06.318Z,2316.00
2018-05-02T04:41:06.467Z,2372.00
2018-05-02T04:42:06.605Z,2420.00
2018-05-02T04:43:06.753Z,2448.00
2018-05-02T04:44:06.901Z,2476.00
2018-05-02T04:45:07.047Z,2484.00
2018-05-02T04:46:07.193Z,2500.00
2018-05-02T04:47:07.339Z,2432.00
2018-05-02T04:48:07.489Z,2364.00
2018-05-02T04:49:07.639Z,2332.00
2018-05-02T04:50:07.785Z,2320.00
2018-05-02T04:51:07.934Z,2304.00
2018-05-02T04:52:08.081Z,2312.00
2018-05-02T04:53:08.228Z,2356.00
2018-05-02T04:54:08.381Z,2412.00
2018-05-02T04:55:08.523Z,2460.00
2018-05-02T04:56:08.704Z,2488.00
2018-05-02T04:57:08.824Z,2516.00
2018-05-02T04:58:08.970Z,2556.00
2018-05-02T04:59:09.119Z,2588.00
2018-05-02T05:00:09.263Z,2596.00
2018-05-02T05:01:09.416Z,2592.00
2018-05-02T05:02:09.560Z,2600.00
2018-05-02T05:03:09.707Z,2608.00
2018-05-02T05:04:09.856Z,2624.00
2018-05-02T05:05:10.004Z,2656.00
2018-05-02T05:06:10.152Z,2708.00
2018-05-02T05:07:10.297Z,2768.00
2018-05-02T05:08:10.444Z,2844.00
2018-05-02T05:09:10.594Z,2920.00
2018-05-02T05:10:10.741Z,2944.00
2018-05-02T05:11:10.889Z,3000.00
2018-05-02T05:12:11.051Z,3060.00
2018-05-02T05:13:11.185Z,3096.00
2018-05-02T05:14:11.330Z,3140.00
2018-05-02T05:15:11.480Z,3172.00
2018-05-02T05:16:11.626Z,3200.00
2018-05-02T05:17:11.774Z,3224.00
2018-05-02T05:18:11.919Z,3284.00
2018-05-02T05:19:12.075Z,3364.00
2018-05-02T05:20:12.218Z,3464.00
2018-05-02T05:21:12.366Z,3564.00
2018-05-02T05:22:12.517Z,3644.00
2018-05-02T05:23:12.659Z,3692.00
2018-05-02T05:24:12.808Z,3716.00
2018-05-02T05:25:12.955Z,3752.00
2018-05-02T05:26:13.115Z,3788.00
2018-05-02T05:27:13.244Z,3816.00
2018-05-02T05:28:13.437Z,3824.00
2018-05-02T05:29:13.540Z,3820.00
2018-05-02T05:30:13.688Z,3836.00
2018-05-02T05:31:13.837Z,3868.00
2018-05-02T05:32:13.985Z,3908.00
2018-05-02T05:33:14.132Z,3932.00
2018-05-02T05:34:14.281Z,3940.00
2018-05-02T05:35:14.460Z,3940.00
2018-05-02T05:36:14.576Z,3968.00
2018-05-02T05:37:14.724Z,3976.00
2018-05-02T05:38:14.874Z,3984.00
2018-05-02T05:39:15.028Z,3956.00
2018-05-02T05:40:15.172Z,3948.00
2018-05-02T05:41:15.323Z,3948.00
2018-05-02T05:42:15.471Z,3980.00
2018-05-02T05:43:15.618Z,3996.00
2018-05-02T05:44:15.764Z,3988.00
2018-05-02T05:45:15.907Z,3968.00
2018-05-02T05:46:16.052Z,3844.00
2018-05-02T05:47:16.202Z,3756.00
2018-05-02T05:48:16.352Z,3712.00
2018-05-02T05:49:16.500Z,3700.00
2018-05-02T05:50:16.649Z,3752.00
2018-05-02T05:51:16.800Z,3792.00
2018-05-02T05:52:16.947Z,3988.00
2018-05-02T05:53:17.097Z,3900.00
2018-05-02T05:54:17.258Z,3980.00
2018-05-02T05:55:17.396Z,4036.00
2018-05-02T05:56:17.543Z,4088.00
2018-05-02T05:57:17.696Z,4156.00
2018-05-02T05:58:17.847Z,4252.00
2018-05-02T05:59:17.993Z,4444.00
2018-05-02T06:00:18.147Z,4668.00
2018-05-02T06:01:18.289Z,4896.00
2018-05-02T06:02:18.439Z,5080.00
2018-05-02T06:03:18.588Z,5268.00
2018-05-02T06:04:18.735Z,5540.00
2018-05-02T06:05:18.886Z,5788.00
2018-05-02T06:06:19.036Z,6168.00
2018-05-02T06:07:19.185Z,6360.00
2018-05-02T06:08:19.333Z,6976.00
2018-05-02T06:09:19.480Z,7232.00
2018-05-02T06:10:19.628Z,7420.00
2018-05-02T06:11:19.779Z,7464.00
2018-05-02T06:12:19.927Z,7544.00
2018-05-02T06:13:20.076Z,7716.00
2018-05-02T06:14:20.229Z,7292.00
2018-05-02T06:15:20.375Z,7280.00
2018-05-02T06:16:20.526Z,7268.00
2018-05-02T06:17:20.673Z,7160.00
2018-05-02T06:18:20.824Z,7100.00
2018-05-02T06:19:20.975Z,7136.00
2018-05-02T06:20:21.124Z,7108.00
2018-05-02T06:21:21.275Z,7096.00
2018-05-02T06:22:21.423Z,7060.00
2018-05-02T06:23:21.575Z,7128.00
2018-05-02T06:24:21.726Z,7036.00
2018-05-02T06:25:21.873Z,7096.00
2018-05-02T06:26:22.024Z,7324.00
2018-05-02T06:27:22.178Z,7320.00
2018-05-02T06:28:22.324Z,7336.00
2018-05-02T06:29:22.474Z,7304.00
2018-05-02T06:30:22.623Z,7340.00
2018-05-02T06:31:22.777Z,7356.00
2018-05-02T06:32:22.924Z,7380.00
2018-05-02T06:33:23.079Z,7388.00
2018-05-02T06:34:23.225Z,7464.00
2018-05-02T06:35:23.379Z,7376.00
2018-05-02T06:36:23.530Z,7460.00
2018-05-02T06:37:23.678Z,7296.00
2018-05-02T06:38:23.829Z,7368.00
2018-05-02T06:39:23.980Z,7028.00
2018-05-02T06:40:24.130Z,6916.00
2018-05-02T06:41:24.279Z,6760.00
2018-05-02T06:42:24.430Z,6708.00
2018-05-02T06:43:24.639Z,6648.00
2018-05-02T06:44:24.730Z,6552.00
2018-05-02T06:45:24.878Z,6460.00
2018-05-02T06:46:25.032Z,6400.00
2018-05-02T06:47:25.185Z,6408.00
2018-05-02T06:48:25.336Z,6884.00
2018-05-02T06:49:25.485Z,7160.00
2018-05-02T06:50:25.687Z,7200.00
2018-05-02T06:51:25.788Z,6756.00
2018-05-02T06:52:25.936Z,6732.00
2018-05-02T06:53:26.089Z,6520.00
2018-05-02T06:54:26.239Z,6324.00
2018-05-02T06:55:26.388Z,6444.00
2018-05-02T06:56:26.570Z,6272.00
2018-05-02T06:57:26.689Z,6140.00
2018-05-02T06:58:26.841Z,6100.00
2018-05-02T06:59:26.991Z,5964.00
2018-05-02T07:00:27.140Z,5932.00
2018-05-02T07:01:27.289Z,5908.00
2018-05-02T07:02:27.441Z,5908.00
2018-05-02T07:03:27.594Z,5804.00
2018-05-02T07:04:27.744Z,5804.00
2018-05-02T07:05:27.896Z,5860.00
2018-05-02T07:06:28.047Z,5812.00
2018-05-02T07:07:28.201Z,5872.00
2018-05-02T07:08:28.350Z,5928.00
2018-05-02T07:09:28.502Z,5964.00
2018-05-02T07:10:28.655Z,6024.00
2018-05-02T07:11:28.807Z,6092.00
2018-05-02T07:12:28.955Z,6172.00
2018-05-02T07:13:29.148Z,6148.00
2018-05-02T07:14:29.259Z,6224.00
2018-05-02T07:15:29.408Z,6516.00
2018-05-02T07:16:29.560Z,6604.00
2018-05-02T07:17:29.712Z,6712.00
2018-05-02T07:18:29.861Z,6980.00
2018-05-02T07:19:30.015Z,6900.00
2018-05-02T07:20:30.165Z,7004.00
2018-05-02T07:21:30.317Z,7132.00
2018-05-02T07:22:30.470Z,7404.00
2018-05-02T07:23:30.624Z,7572.00
2018-05-02T07:24:30.774Z,8116.00
2018-05-02T07:25:30.926Z,8200.00
2018-05-02T07:26:31.080Z,8108.00
2018-05-02T07:27:31.229Z,8080.00
2018-05-02T07:28:31.380Z,7888.00
2018-05-02T07:29:31.539Z,7708.00
2018-05-02T07:30:31.688Z,7704.00
2018-05-02T07:31:31.841Z,7468.00
2018-05-02T07:32:32.034Z,7248.00
2018-05-02T07:33:32.147Z,7460.00
2018-05-02T07:34:32.297Z,7308.00
2018-05-02T07:35:32.451Z,7468.00
2018-05-02T07:36:32.605Z,7316.00
2018-05-02T07:37:32.750Z,7580.00
2018-05-02T07:38:32.906Z,7860.00
2018-05-02T07:39:33.054Z,7932.00
2018-05-02T07:40:33.208Z,8320.00
2018-05-02T07:41:33.359Z,7972.00
2018-05-02T07:42:33.519Z,7748.00
2018-05-02T07:43:33.665Z,7592.00
2018-05-02T07:44:33.818Z,7488.00
2018-05-02T07:45:33.971Z,7732.00
2018-05-02T07:46:34.121Z,7632.00
2018-05-02T07:47:34.274Z,7508.00
2018-05-02T07:48:34.458Z,7692.00
2018-05-02T07:49:34.578Z,7344.00
2018-05-02T07:50:34.730Z,7468.00
2018-05-02T07:51:34.884Z,7188.00
2018-05-02T07:52:35.036Z,7212.00
2018-05-02T07:53:35.190Z,7456.00
2018-05-02T07:54:35.341Z,7392.00
2018-05-02T07:55:35.496Z,7668.00
2018-05-02T07:56:35.688Z,8208.00
2018-05-02T07:57:35.800Z,8088.00
2018-05-02T07:58:35.952Z,7724.00
2018-05-02T07:59:36.109Z,7844.00
2018-05-02T08:00:36.259Z,7824.00
2018-05-02T08:01:36.414Z,7880.00
2018-05-02T08:02:36.569Z,7584.00
2018-05-02T08:03:36.720Z,7656.00
2018-05-02T08:04:36.871Z,7848.00
2018-05-02T08:05:37.038Z,7852.00
2018-05-02T08:06:37.169Z,8288.00
2018-05-02T08:07:37.331Z,8228.00
2018-05-02T08:08:37.477Z,8148.00
2018-05-02T08:09:37.628Z,8068.00
2018-05-02T08:10:37.783Z,8532.00
2018-05-02T08:11:37.942Z,8652.00
2018-05-02T08:12:38.090Z,8152.00
2018-05-02T08:13:38.246Z,8408.00
2018-05-02T08:14:38.396Z,8128.00
2018-05-02T08:15:38.552Z,7816.00
2018-05-02T08:16:38.704Z,7876.00
2018-05-02T08:17:38.856Z,7732.00
2018-05-02T08:18:39.010Z,7684.00
2018-05-02T08:19:39.164Z,7820.00
2018-05-02T08:20:39.314Z,7908.00
2018-05-02T08:21:39.464Z,7984.00
2018-05-02T08:22:39.619Z,8276.00
2018-05-02T08:23:39.772Z,8084.00
2018-05-02T08:24:39.928Z,8196.00
2018-05-02T08:25:40.076Z,8312.00
2018-05-02T08:26:40.230Z,8520.00
2018-05-02T08:27:40.381Z,8600.00
2018-05-02T08:28:40.535Z,8916.00
2018-05-02T08:29:40.687Z,9312.00
2018-05-02T08:30:40.843Z,9388.00
2018-05-02T08:31:40.996Z,9264.00
2018-05-02T08:32:41.150Z,9128.00
2018-05-02T08:33:41.304Z,9068.00
2018-05-02T08:34:41.461Z,9136.00
2018-05-02T08:35:41.610Z,9076.00
2018-05-02T08:36:41.764Z,9084.00
2018-05-02T08:37:41.918Z,9296.00
2018-05-02T08:38:42.074Z,9160.00
2018-05-02T08:39:42.228Z,9248.00
2018-05-02T08:40:42.381Z,9264.00
2018-05-02T08:41:42.535Z,9436.00
2018-05-02T08:42:42.691Z,9724.00
2018-05-02T08:43:42.841Z,9640.00
2018-05-02T08:44:42.996Z,9588.00
2018-05-02T08:45:43.149Z,9756.00
2018-05-02T08:46:43.304Z,9968.00
2018-05-02T08:47:43.463Z,10020.00
2018-05-02T08:48:43.611Z,10232.00
2018-05-02T08:49:43.768Z,10064.00
2018-05-02T08:50:43.923Z,9940.00
2018-05-02T08:51:44.077Z,10384.00
2018-05-02T08:52:44.235Z,10476.00
2018-05-02T08:53:44.383Z,10420.00
2018-05-02T08:54:44.544Z,10400.00
2018-05-02T08:55:44.693Z,9888.00
2018-05-02T08:56:44.850Z,9972.00
2018-05-02T08:57:44.998Z,10200.00
2018-05-02T08:58:45.160Z,10320.00
2018-05-02T08:59:45.310Z,10516.00
2018-05-02T09:00:45.470Z,10644.00
2018-05-02T09:01:45.636Z,10696.00
2018-05-02T09:02:45.777Z,10956.00
2018-05-02T09:03:45.979Z,10480.00
2018-05-02T09:04:46.100Z,10068.00
2018-05-02T09:05:46.268Z,9956.00
2018-05-02T09:06:46.395Z,10388.00
2018-05-02T09:07:46.552Z,10448.00
2018-05-02T09:08:46.703Z,10684.00
2018-05-02T09:09:46.858Z,10412.00
2018-05-02T09:10:47.011Z,10476.00
2018-05-02T09:11:47.168Z,10432.00
2018-05-02T09:12:47.322Z,10316.00
2018-05-02T09:13:47.478Z,10168.00
2018-05-02T09:14:47.634Z,10452.00
2018-05-02T09:15:47.794Z,10480.00
2018-05-02T09:16:47.948Z,10192.00
2018-05-02T09:17:48.102Z,10376.00
2018-05-02T09:18:48.256Z,10224.00
2018-05-02T09:19:48.413Z,10248.00
2018-05-02T09:20:48.567Z,10164.00
2018-05-02T09:21:48.723Z,10236.00
2018-05-02T09:22:48.878Z,10176.00
2018-05-02T09:23:49.031Z,10108.00
2018-05-02T09:24:49.200Z,10068.00
2018-05-02T09:25:49.345Z,10052.00
2018-05-02T09:26:49.495Z,10028.00
2018-05-02T09:27:49.650Z,9900.00
2018-05-02T09:28:49.808Z,10048.00
2018-05-02T09:29:49.960Z,10160.00
2018-05-02T09:30:50.116Z,10008.00
2018-05-02T09:31:50.272Z,10004.00
2018-05-02T09:32:50.433Z,9924.00
2018-05-02T09:33:50.587Z,9892.00
2018-05-02T09:34:50.743Z,9884.00
2018-05-02T09:35:50.899Z,9936.00
2018-05-02T09:36:51.059Z,9916.00
2018-05-02T09:37:51.220Z,9892.00
2018-05-02T09:38:51.361Z,9924.00
2018-05-02T09:39:51.515Z,9956.00
2018-05-02T09:40:51.674Z,10060.00
2018-05-02T09:41:51.827Z,10264.00
2018-05-02T09:42:51.985Z,10524.00
2018-05-02T09:43:52.140Z,11008.00
2018-05-02T09:44:52.301Z,10788.00
2018-05-02T09:45:52.457Z,10396.00
2018-05-02T09:46:52.617Z,10468.00
2018-05-02T09:47:52.771Z,10416.00
2018-05-02T09:48:52.929Z,10400.00
2018-05-02T09:49:53.088Z,10220.00
2018-05-02T09:50:53.307Z,10156.00
2018-05-02T09:51:53.399Z,10016.00
2018-05-02T09:52:53.560Z,10044.00
2018-05-02T09:53:53.714Z,10108.00
2018-05-02T09:54:53.871Z,10272.00
2018-05-02T09:55:54.029Z,10320.00
2018-05-02T09:56:54.186Z,10380.00
2018-05-02T09:57:54.345Z,10464.00
2018-05-02T09:58:54.502Z,10404.00
2018-05-02T09:59:54.664Z,10316.00
2018-05-02T10:00:54.823Z,10252.00
2018-05-02T10:01:54.975Z,10204.00
2018-05-02T10:02:55.132Z,10096.00
2018-05-02T10:03:55.290Z,10032.00
2018-05-02T10:04:55.451Z,10092.00
2018-05-02T10:05:55.603Z,10244.00
2018-05-02T10:06:55.759Z,10344.00
2018-05-02T10:07:55.918Z,10452.00
2018-05-02T10:08:56.075Z,10528.00
2018-05-02T10:09:56.234Z,10648.00
2018-05-02T10:10:56.387Z,10812.00
2018-05-02T10:11:56.547Z,10988.00
2018-05-02T10:12:56.702Z,10936.00
2018-05-02T10:13:56.860Z,10996.00
2018-05-02T10:14:57.017Z,10872.00
2018-05-02T10:15:57.175Z,10852.00
2018-05-02T10:16:57.332Z,10856.00
2018-05-02T10:17:57.532Z,10872.00
2018-05-02T10:18:57.644Z,10916.00
2018-05-02T10:19:57.801Z,10996.00
2018-05-02T10:20:57.959Z,11172.00
2018-05-02T10:21:58.115Z,11272.00
2018-05-02T10:22:58.271Z,11200.00
2018-05-02T10:23:58.429Z,11240.00
2018-05-02T10:24:58.584Z,11344.00
2018-05-02T10:25:58.743Z,11324.00
2018-05-02T10:26:58.902Z,11280.00
2018-05-02T10:27:59.061Z,11392.00
2018-05-02T10:28:59.220Z,11572.00
2018-05-02T10:29:59.380Z,11900.00
2018-05-02T10:30:59.530Z,11704.00
2018-05-02T10:31:59.692Z,11776.00
2018-05-02T10:32:59.846Z,11740.00
2018-05-02T10:34:00.000Z,11676.00
2018-05-02T10:35:00.158Z,11240.00
2018-05-02T10:36:00.315Z,11016.00
2018-05-02T10:37:00.557Z,10968.00
2018-05-02T10:38:00.627Z,10948.00
2018-05-02T10:39:00.791Z,10952.00
2018-05-02T10:40:00.943Z,11020.00
2018-05-02T10:41:01.128Z,11084.00
2018-05-02T10:42:01.259Z,11088.00
2018-05-02T10:43:01.449Z,11144.00
2018-05-02T10:44:01.572Z,11216.00
2018-05-02T10:45:01.728Z,11160.00
2018-05-02T10:46:01.885Z,11228.00
2018-05-02T10:47:02.043Z,11372.00
2018-05-02T10:48:02.199Z,11264.00
2018-05-02T10:49:02.358Z,11296.00
2018-05-02T10:50:02.519Z,11292.00
2018-05-02T10:51:02.674Z,11164.00
2018-05-02T10:52:02.832Z,11112.00
2018-05-02T10:53:02.988Z,11040.00
2018-05-02T10:54:03.147Z,11012.00
2018-05-02T10:55:03.307Z,10952.00
2018-05-02T10:56:03.525Z,10932.00
2018-05-02T10:57:03.612Z,10908.00
2018-05-02T10:58:03.778Z,10896.00
2018-05-02T10:59:03.927Z,10880.00
2018-05-02T11:00:04.087Z,10880.00
2018-05-02T11:01:04.244Z,10896.00
2018-05-02T11:02:04.403Z,10908.00
2018-05-02T11:03:04.558Z,10928.00
2018-05-02T11:04:04.720Z,10892.00
2018-05-02T11:05:04.877Z,10848.00
2018-05-02T11:06:05.036Z,10832.00
2018-05-02T11:07:05.191Z,10816.00
2018-05-02T11:08:05.346Z,10784.00
2018-05-02T11:09:05.508Z,10764.00
2018-05-02T11:10:05.661Z,10768.00
2018-05-02T11:11:05.818Z,10752.00
2018-05-02T11:12:05.973Z,10756.00
2018-05-02T11:13:06.130Z,10748.00
2018-05-02T11:14:06.286Z,10744.00
2018-05-02T11:15:06.447Z,10768.00
2018-05-02T11:16:06.602Z,10816.00
2018-05-02T11:17:06.762Z,10804.00
2018-05-02T11:18:06.918Z,10844.00
2018-05-02T11:19:07.082Z,10912.00
2018-05-02T11:20:07.236Z,10928.00
2018-05-02T11:21:07.395Z,10952.00
2018-05-02T11:22:07.553Z,10948.00
2018-05-02T11:23:07.710Z,10904.00
2018-05-02T11:24:07.869Z,10884.00
2018-05-02T11:25:08.030Z,10884.00
2018-05-02T11:26:08.188Z,10916.00
2018-05-02T11:27:08.346Z,10892.00
2018-05-02T11:28:08.511Z,10912.00
2018-05-02T11:29:08.661Z,10880.00
2018-05-02T11:30:08.822Z,10864.00
2018-05-02T11:31:08.980Z,10840.00
2018-05-02T11:32:09.138Z,10820.00
2018-05-02T11:33:09.296Z,10820.00
2018-05-02T11:34:09.453Z,10816.00
2018-05-02T11:35:09.612Z,10816.00
2018-05-02T11:36:09.770Z,10852.00
2018-05-02T11:37:09.931Z,10940.00
2018-05-02T11:38:10.090Z,11024.00
2018-05-02T11:39:10.250Z,11184.00
2018-05-02T11:40:10.408Z,11092.00
2018-05-02T11:41:10.567Z,11008.00
2018-05-02T11:42:10.723Z,10964.00
2018-05-02T11:43:10.881Z,10964.00
2018-05-02T11:44:11.039Z,10920.00
2018-05-02T11:45:11.198Z,10876.00
2018-05-02T11:46:11.360Z,10840.00
2018-05-02T11:47:11.516Z,10852.00
2018-05-02T11:48:11.674Z,10848.00
2018-05-02T11:49:11.827Z,10860.00
2018-05-02T11:50:11.987Z,10840.00
2018-05-02T11:51:12.147Z,10864.00
2018-05-02T11:52:12.310Z,10840.00
2018-05-02T11:53:12.467Z,10816.00
2018-05-02T11:54:12.617Z,10808.00
2018-05-02T11:55:12.784Z,10788.00
2018-05-02T11:56:12.942Z,10768.00
2018-05-02T11:57:13.107Z,10756.00
2018-05-02T11:58:13.261Z,10780.00
2018-05-02T11:59:13.422Z,10760.00
2018-05-02T12:00:13.583Z,10780.00
2018-05-02T12:01:13.735Z,10772.00
2018-05-02T12:02:13.892Z,10796.00
2018-05-02T12:03:14.550Z,10784.00
2018-05-02T12:04:14.210Z,10820.00
2018-05-02T12:05:14.365Z,10872.00
2018-05-02T12:06:14.527Z,10928.00
2018-05-02T12:07:14.685Z,10980.00
2018-05-02T12:08:14.844Z,11004.00
2018-05-02T12:09:15.001Z,11024.00
2018-05-02T12:10:15.160Z,11080.00
2018-05-02T12:11:15.324Z,11048.00
2018-05-02T12:12:15.478Z,11060.00
2018-05-02T12:13:15.646Z,11104.00
2018-05-02T12:14:15.801Z,11088.00
2018-05-02T12:15:15.958Z,11124.00
2018-05-02T12:16:16.117Z,11128.00
2018-05-02T12:17:16.277Z,11220.00
2018-05-02T12:18:16.458Z,11220.00
2018-05-02T12:19:16.625Z,11296.00
2018-05-02T12:20:16.789Z,11208.00
2018-05-02T12:21:16.948Z,11188.00
2018-05-02T12:22:17.105Z,11208.00